sensor_id;sensor_type;location;lat;lon;timestamp;P1;durP1;ratioP1;P2;durP2;ratioP2
60641;SDS011;46837;52.446;-1.930;2024-03-22T00:00:07;9.48;;;5.78;;
60641;SDS011;46837;52.446;-1.930;2024-03-22T00:01:07;12.46;;;6.36;;
60641;SDS011;46837;52.446;-1.930;2024-03-22T00:02:07;10.44;;;5.66;;
60641;SDS011;46837;52.446;-1.930;2024-03-22T00:03:07;17.12;;;6.88;;
60641;SDS011;46837;52.446;-1.930;2024-03-22T00:04:07;11.84;;;6.16;;
60641;SDS011;46837;52.446;-1.930;2024-03-22T00:05:07;9.76;;;6.52;;
60641;SDS011;46837;52.446;-1.930;2024-03-22T00:06:07;13.08;;;5.78;;
60641;SDS011;46837;52.446;-1.930;2024-03-22T00:07:07;14.84;;;7.30;;
60641;SDS011;46837;52.446;-1.930;2024-03-22T00:08:07;11.30;;;6.46;;
60641;SDS011;46837;52.446;-1.930;2024-03-22T00:09:07;10.94;;;5.34;;
60641;SDS011;46837;52.446;-1.930;2024-03-22T00:10:07;12.06;;;6.00;;
60641;SDS011;46837;52.446;-1.930;2024-03-22T00:11:07;9.16;;;5.56;;
60641;SDS011;46837;52.446;-1.930;2024-03-22T00:12:07;10.22;;;7.54;;
60641;SDS011;46837;52.446;-1.930;2024-03-22T00:13:07;13.30;;;6.20;;
60641;SDS011;46837;52.446;-1.930;2024-03-22T00:14:07;9.44;;;5.98;;
60641;SDS011;46837;52.446;-1.930;2024-03-22T00:15:07;12.94;;;6.34;;
60641;SDS011;46837;52.446;-1.930;2024-03-22T00:16:07;15.46;;;7.00;;
60641;SDS011;46837;52.446;-1.930;2024-03-22T00:17:07;14.12;;;6.56;;
60641;SDS011;46837;52.446;-1.930;2024-03-22T00:18:07;13.26;;;6.22;;
60641;SDS011;46837;52.446;-1.930;2024-03-22T00:19:07;11.22;;;6.18;;
60641;SDS011;46837;52.446;-1.930;2024-03-22T00:20:07;16.02;;;6.36;;
60641;SDS011;46837;52.446;-1.930;2024-03-22T00:21:07;9.84;;;8.34;;
60641;SDS011;46837;52.446;-1.930;2024-03-22T00:22:07;10.70;;;6.86;;
60641;SDS011;46837;52.446;-1.930;2024-03-22T00:23:07;14.32;;;7.42;;
60641;SDS011;46837;52.446;-1.930;2024-03-22T00:24:07;13.68;;;7.06;;
60641;SDS011;46837;52.446;-1.930;2024-03-22T00:25:07;12.22;;;6.78;;
60641;SDS011;46837;52.446;-1.930;2024-03-22T00:26:07;14.94;;;6.80;;
60641;SDS011;46837;52.446;-1.930;2024-03-22T00:27:07;13.04;;;7.00;;
60641;SDS011;46837;52.446;-1.930;2024-03-22T00:28:07;11.28;;;6.64;;
60641;SDS011;46837;52.446;-1.930;2024-03-22T00:29:07;12.26;;;7.06;;
60641;SDS011;46837;52.446;-1.930;2024-03-22T00:30:07;16.78;;;6.62;;
60641;SDS011;46837;52.446;-1.930;2024-03-22T00:31:07;11.34;;;7.10;;
60641;SDS011;46837;52.446;-1.930;2024-03-22T00:32:08;11.86;;;7.06;;
60641;SDS011;46837;52.446;-1.930;2024-03-22T00:33:07;15.78;;;7.06;;
60641;SDS011;46837;52.446;-1.930;2024-03-22T00:34:07;9.12;;;6.36;;
60641;SDS011;46837;52.446;-1.930;2024-03-22T00:35:07;12.20;;;7.80;;
60641;SDS011;46837;52.446;-1.930;2024-03-22T00:36:07;10.08;;;6.92;;
60641;SDS011;46837;52.446;-1.930;2024-03-22T00:37:07;10.86;;;7.32;;
60641;SDS011;46837;52.446;-1.930;2024-03-22T00:38:07;13.74;;;7.18;;
60641;SDS011;46837;52.446;-1.930;2024-03-22T00:39:07;13.54;;;7.62;;
60641;SDS011;46837;52.446;-1.930;2024-03-22T00:40:07;10.60;;;7.14;;
60641;SDS011;46837;52.446;-1.930;2024-03-22T00:41:07;10.64;;;6.36;;
60641;SDS011;46837;52.446;-1.930;2024-03-22T00:42:07;13.24;;;7.04;;
60641;SDS011;46837;52.446;-1.930;2024-03-22T00:43:07;13.18;;;6.92;;
60641;SDS011;46837;52.446;-1.930;2024-03-22T00:44:07;21.36;;;6.58;;
60641;SDS011;46837;52.446;-1.930;2024-03-22T00:45:07;9.92;;;6.26;;
60641;SDS011;46837;52.446;-1.930;2024-03-22T00:46:07;13.96;;;7.76;;
60641;SDS011;46837;52.446;-1.930;2024-03-22T00:47:07;16.44;;;7.30;;
60641;SDS011;46837;52.446;-1.930;2024-03-22T00:48:07;12.22;;;7.10;;
60641;SDS011;46837;52.446;-1.930;2024-03-22T00:49:07;15.88;;;7.34;;
60641;SDS011;46837;52.446;-1.930;2024-03-22T00:50:07;13.88;;;8.52;;
60641;SDS011;46837;52.446;-1.930;2024-03-22T00:51:07;11.44;;;7.44;;
60641;SDS011;46837;52.446;-1.930;2024-03-22T00:52:07;13.76;;;8.32;;
60641;SDS011;46837;52.446;-1.930;2024-03-22T00:53:07;17.30;;;9.60;;
60641;SDS011;46837;52.446;-1.930;2024-03-22T00:54:07;14.96;;;7.42;;
60641;SDS011;46837;52.446;-1.930;2024-03-22T00:55:07;10.00;;;7.30;;
60641;SDS011;46837;52.446;-1.930;2024-03-22T00:56:07;9.90;;;8.84;;
60641;SDS011;46837;52.446;-1.930;2024-03-22T00:57:07;14.40;;;8.64;;
60641;SDS011;46837;52.446;-1.930;2024-03-22T00:58:07;18.68;;;7.78;;
60641;SDS011;46837;52.446;-1.930;2024-03-22T00:59:07;11.40;;;6.92;;
60641;SDS011;46837;52.446;-1.930;2024-03-22T01:00:07;16.12;;;8.10;;
60641;SDS011;46837;52.446;-1.930;2024-03-22T01:01:07;18.20;;;8.04;;
60641;SDS011;46837;52.446;-1.930;2024-03-22T01:02:07;9.18;;;7.18;;
60641;SDS011;46837;52.446;-1.930;2024-03-22T01:03:07;11.58;;;7.10;;
60641;SDS011;46837;52.446;-1.930;2024-03-22T01:04:07;14.42;;;8.30;;
60641;SDS011;46837;52.446;-1.930;2024-03-22T01:05:07;20.76;;;6.86;;
60641;SDS011;46837;52.446;-1.930;2024-03-22T01:06:07;9.76;;;7.18;;
60641;SDS011;46837;52.446;-1.930;2024-03-22T01:07:07;14.24;;;7.10;;
60641;SDS011;46837;52.446;-1.930;2024-03-22T01:08:07;11.02;;;6.84;;
60641;SDS011;46837;52.446;-1.930;2024-03-22T01:09:07;9.88;;;7.58;;
60641;SDS011;46837;52.446;-1.930;2024-03-22T01:10:07;14.32;;;7.82;;
60641;SDS011;46837;52.446;-1.930;2024-03-22T01:11:07;12.28;;;6.58;;
60641;SDS011;46837;52.446;-1.930;2024-03-22T01:12:07;11.46;;;6.82;;
60641;SDS011;46837;52.446;-1.930;2024-03-22T01:13:07;12.22;;;6.48;;
60641;SDS011;46837;52.446;-1.930;2024-03-22T01:14:07;10.72;;;6.90;;
60641;SDS011;46837;52.446;-1.930;2024-03-22T01:15:07;11.00;;;6.64;;
60641;SDS011;46837;52.446;-1.930;2024-03-22T01:16:07;11.94;;;7.36;;
60641;SDS011;46837;52.446;-1.930;2024-03-22T01:17:07;11.28;;;6.28;;
60641;SDS011;46837;52.446;-1.930;2024-03-22T01:18:07;11.78;;;5.94;;
60641;SDS011;46837;52.446;-1.930;2024-03-22T01:19:07;10.86;;;6.36;;
60641;SDS011;46837;52.446;-1.930;2024-03-22T01:20:07;12.04;;;6.54;;
60641;SDS011;46837;52.446;-1.930;2024-03-22T01:21:07;9.68;;;5.82;;
60641;SDS011;46837;52.446;-1.930;2024-03-22T01:22:07;9.42;;;6.36;;
60641;SDS011;46837;52.446;-1.930;2024-03-22T01:23:07;16.76;;;6.40;;
60641;SDS011;46837;52.446;-1.930;2024-03-22T01:24:07;8.98;;;5.88;;
60641;SDS011;46837;52.446;-1.930;2024-03-22T01:25:07;11.76;;;6.60;;
60641;SDS011;46837;52.446;-1.930;2024-03-22T01:26:07;8.44;;;6.06;;
60641;SDS011;46837;52.446;-1.930;2024-03-22T01:27:07;11.92;;;5.70;;
60641;SDS011;46837;52.446;-1.930;2024-03-22T01:28:07;7.14;;;4.60;;
60641;SDS011;46837;52.446;-1.930;2024-03-22T01:29:07;11.64;;;6.72;;
60641;SDS011;46837;52.446;-1.930;2024-03-22T01:30:07;7.74;;;4.48;;
60641;SDS011;46837;52.446;-1.930;2024-03-22T01:31:07;8.68;;;5.08;;
60641;SDS011;46837;52.446;-1.930;2024-03-22T01:32:07;10.94;;;5.64;;
60641;SDS011;46837;52.446;-1.930;2024-03-22T01:33:07;8.54;;;5.14;;
60641;SDS011;46837;52.446;-1.930;2024-03-22T01:34:07;9.70;;;5.24;;
60641;SDS011;46837;52.446;-1.930;2024-03-22T01:35:07;5.00;;;3.98;;
60641;SDS011;46837;52.446;-1.930;2024-03-22T01:36:07;7.14;;;4.52;;
60641;SDS011;46837;52.446;-1.930;2024-03-22T01:37:07;7.92;;;4.96;;
60641;SDS011;46837;52.446;-1.930;2024-03-22T01:38:07;9.10;;;4.64;;
60641;SDS011;46837;52.446;-1.930;2024-03-22T01:39:07;7.30;;;5.12;;
60641;SDS011;46837;52.446;-1.930;2024-03-22T01:40:07;7.88;;;5.04;;
60641;SDS011;46837;52.446;-1.930;2024-03-22T01:41:07;8.96;;;4.66;;
60641;SDS011;46837;52.446;-1.930;2024-03-22T01:42:07;12.02;;;4.98;;
60641;SDS011;46837;52.446;-1.930;2024-03-22T01:43:07;12.14;;;6.18;;
60641;SDS011;46837;52.446;-1.930;2024-03-22T01:44:07;9.26;;;5.50;;
60641;SDS011;46837;52.446;-1.930;2024-03-22T01:45:07;10.92;;;5.90;;
60641;SDS011;46837;52.446;-1.930;2024-03-22T01:46:07;6.80;;;4.82;;
60641;SDS011;46837;52.446;-1.930;2024-03-22T01:47:07;5.44;;;4.92;;
60641;SDS011;46837;52.446;-1.930;2024-03-22T01:48:07;6.22;;;4.44;;
60641;SDS011;46837;52.446;-1.930;2024-03-22T01:49:10;9.44;;;4.70;;
60641;SDS011;46837;52.446;-1.930;2024-03-22T01:50:07;8.42;;;4.54;;
60641;SDS011;46837;52.446;-1.930;2024-03-22T01:51:07;5.42;;;3.98;;
60641;SDS011;46837;52.446;-1.930;2024-03-22T01:52:07;11.00;;;5.08;;
60641;SDS011;46837;52.446;-1.930;2024-03-22T01:53:07;8.66;;;4.94;;
60641;SDS011;46837;52.446;-1.930;2024-03-22T01:54:08;11.36;;;6.70;;
60641;SDS011;46837;52.446;-1.930;2024-03-22T01:55:07;9.14;;;4.50;;
60641;SDS011;46837;52.446;-1.930;2024-03-22T01:56:07;13.58;;;4.36;;
60641;SDS011;46837;52.446;-1.930;2024-03-22T01:57:07;7.30;;;4.74;;
60641;SDS011;46837;52.446;-1.930;2024-03-22T01:58:07;8.10;;;3.94;;
60641;SDS011;46837;52.446;-1.930;2024-03-22T01:59:07;5.16;;;4.50;;
60641;SDS011;46837;52.446;-1.930;2024-03-22T02:00:07;5.20;;;3.58;;
60641;SDS011;46837;52.446;-1.930;2024-03-22T02:01:07;7.76;;;4.16;;
60641;SDS011;46837;52.446;-1.930;2024-03-22T02:02:07;4.48;;;3.70;;
60641;SDS011;46837;52.446;-1.930;2024-03-22T02:03:07;5.36;;;3.82;;
60641;SDS011;46837;52.446;-1.930;2024-03-22T02:04:07;7.26;;;4.10;;
60641;SDS011;46837;52.446;-1.930;2024-03-22T02:06:07;7.66;;;3.50;;
60641;SDS011;46837;52.446;-1.930;2024-03-22T02:07:07;5.28;;;2.66;;
60641;SDS011;46837;52.446;-1.930;2024-03-22T02:08:07;5.44;;;2.20;;
60641;SDS011;46837;52.446;-1.930;2024-03-22T02:09:07;4.60;;;2.28;;
60641;SDS011;46837;52.446;-1.930;2024-03-22T02:10:07;3.24;;;2.92;;
60641;SDS011;46837;52.446;-1.930;2024-03-22T02:11:07;4.86;;;3.08;;
60641;SDS011;46837;52.446;-1.930;2024-03-22T02:12:07;3.80;;;2.54;;
60641;SDS011;46837;52.446;-1.930;2024-03-22T02:13:07;8.62;;;3.18;;
60641;SDS011;46837;52.446;-1.930;2024-03-22T02:14:07;5.34;;;2.94;;
60641;SDS011;46837;52.446;-1.930;2024-03-22T02:15:07;6.08;;;2.72;;
60641;SDS011;46837;52.446;-1.930;2024-03-22T02:16:07;3.48;;;2.10;;
60641;SDS011;46837;52.446;-1.930;2024-03-22T02:17:07;4.84;;;2.36;;
60641;SDS011;46837;52.446;-1.930;2024-03-22T02:18:07;3.40;;;2.50;;
60641;SDS011;46837;52.446;-1.930;2024-03-22T02:19:07;7.70;;;3.10;;
60641;SDS011;46837;52.446;-1.930;2024-03-22T02:20:07;3.58;;;2.38;;
60641;SDS011;46837;52.446;-1.930;2024-03-22T02:21:07;7.46;;;2.46;;
60641;SDS011;46837;52.446;-1.930;2024-03-22T02:22:07;3.04;;;2.18;;
60641;SDS011;46837;52.446;-1.930;2024-03-22T02:23:07;4.98;;;3.16;;
60641;SDS011;46837;52.446;-1.930;2024-03-22T02:24:07;3.60;;;2.52;;
60641;SDS011;46837;52.446;-1.930;2024-03-22T02:25:07;3.42;;;1.94;;
60641;SDS011;46837;52.446;-1.930;2024-03-22T02:26:07;6.90;;;2.46;;
60641;SDS011;46837;52.446;-1.930;2024-03-22T02:27:07;5.14;;;2.14;;
60641;SDS011;46837;52.446;-1.930;2024-03-22T02:28:07;3.56;;;2.18;;
60641;SDS011;46837;52.446;-1.930;2024-03-22T02:29:07;3.36;;;2.28;;
60641;SDS011;46837;52.446;-1.930;2024-03-22T02:30:07;3.60;;;2.64;;
60641;SDS011;46837;52.446;-1.930;2024-03-22T02:31:07;4.86;;;1.86;;
60641;SDS011;46837;52.446;-1.930;2024-03-22T02:32:07;2.68;;;1.82;;
60641;SDS011;46837;52.446;-1.930;2024-03-22T02:33:07;8.00;;;2.48;;
60641;SDS011;46837;52.446;-1.930;2024-03-22T02:34:07;4.14;;;1.90;;
60641;SDS011;46837;52.446;-1.930;2024-03-22T02:35:07;4.28;;;2.06;;
60641;SDS011;46837;52.446;-1.930;2024-03-22T02:36:07;3.46;;;1.84;;
60641;SDS011;46837;52.446;-1.930;2024-03-22T02:37:07;3.80;;;2.00;;
60641;SDS011;46837;52.446;-1.930;2024-03-22T02:38:07;9.62;;;2.02;;
60641;SDS011;46837;52.446;-1.930;2024-03-22T02:39:07;2.86;;;1.90;;
60641;SDS011;46837;52.446;-1.930;2024-03-22T02:40:07;6.26;;;1.88;;
60641;SDS011;46837;52.446;-1.930;2024-03-22T02:41:07;4.68;;;2.28;;
60641;SDS011;46837;52.446;-1.930;2024-03-22T02:42:07;2.40;;;2.14;;
60641;SDS011;46837;52.446;-1.930;2024-03-22T02:43:07;3.18;;;1.88;;
60641;SDS011;46837;52.446;-1.930;2024-03-22T02:44:07;5.36;;;2.44;;
60641;SDS011;46837;52.446;-1.930;2024-03-22T02:45:07;3.16;;;2.02;;
60641;SDS011;46837;52.446;-1.930;2024-03-22T02:46:07;3.98;;;2.14;;
60641;SDS011;46837;52.446;-1.930;2024-03-22T02:47:07;3.30;;;1.70;;
60641;SDS011;46837;52.446;-1.930;2024-03-22T02:48:07;4.08;;;1.92;;
60641;SDS011;46837;52.446;-1.930;2024-03-22T02:49:07;2.04;;;1.94;;
60641;SDS011;46837;52.446;-1.930;2024-03-22T02:50:07;2.62;;;1.64;;
60641;SDS011;46837;52.446;-1.930;2024-03-22T02:51:07;2.50;;;2.12;;
60641;SDS011;46837;52.446;-1.930;2024-03-22T02:52:07;3.82;;;1.76;;
60641;SDS011;46837;52.446;-1.930;2024-03-22T02:53:07;3.00;;;2.46;;
60641;SDS011;46837;52.446;-1.930;2024-03-22T02:54:07;2.62;;;2.40;;
60641;SDS011;46837;52.446;-1.930;2024-03-22T02:55:07;3.70;;;3.02;;
60641;SDS011;46837;52.446;-1.930;2024-03-22T02:56:07;5.74;;;2.62;;
60641;SDS011;46837;52.446;-1.930;2024-03-22T02:57:07;3.48;;;2.80;;
60641;SDS011;46837;52.446;-1.930;2024-03-22T02:58:07;3.92;;;2.84;;
60641;SDS011;46837;52.446;-1.930;2024-03-22T02:59:07;7.36;;;2.66;;
60641;SDS011;46837;52.446;-1.930;2024-03-22T03:00:07;2.98;;;2.64;;
60641;SDS011;46837;52.446;-1.930;2024-03-22T03:01:07;6.86;;;2.78;;
60641;SDS011;46837;52.446;-1.930;2024-03-22T03:02:07;4.00;;;3.06;;
60641;SDS011;46837;52.446;-1.930;2024-03-22T03:03:07;3.80;;;2.92;;
60641;SDS011;46837;52.446;-1.930;2024-03-22T03:04:07;5.32;;;3.40;;
60641;SDS011;46837;52.446;-1.930;2024-03-22T03:05:07;8.04;;;3.68;;
60641;SDS011;46837;52.446;-1.930;2024-03-22T03:06:07;5.22;;;3.96;;
60641;SDS011;46837;52.446;-1.930;2024-03-22T03:07:07;4.08;;;3.34;;
60641;SDS011;46837;52.446;-1.930;2024-03-22T03:08:07;5.64;;;4.76;;
60641;SDS011;46837;52.446;-1.930;2024-03-22T03:09:08;7.52;;;3.54;;
60641;SDS011;46837;52.446;-1.930;2024-03-22T03:10:07;5.24;;;3.22;;
60641;SDS011;46837;52.446;-1.930;2024-03-22T03:11:07;10.96;;;3.38;;
60641;SDS011;46837;52.446;-1.930;2024-03-22T03:12:07;5.50;;;3.68;;
60641;SDS011;46837;52.446;-1.930;2024-03-22T03:13:07;5.32;;;3.68;;
60641;SDS011;46837;52.446;-1.930;2024-03-22T03:14:07;4.52;;;2.42;;
60641;SDS011;46837;52.446;-1.930;2024-03-22T03:15:07;5.76;;;3.14;;
60641;SDS011;46837;52.446;-1.930;2024-03-22T03:16:07;5.34;;;3.24;;
60641;SDS011;46837;52.446;-1.930;2024-03-22T03:17:07;4.98;;;2.68;;
60641;SDS011;46837;52.446;-1.930;2024-03-22T03:18:07;5.44;;;2.88;;
60641;SDS011;46837;52.446;-1.930;2024-03-22T03:19:07;4.52;;;2.94;;
60641;SDS011;46837;52.446;-1.930;2024-03-22T03:20:11;6.34;;;3.14;;
60641;SDS011;46837;52.446;-1.930;2024-03-22T03:21:07;5.18;;;2.52;;
60641;SDS011;46837;52.446;-1.930;2024-03-22T03:22:07;3.66;;;2.86;;
60641;SDS011;46837;52.446;-1.930;2024-03-22T03:23:07;6.12;;;2.28;;
60641;SDS011;46837;52.446;-1.930;2024-03-22T03:24:07;2.70;;;1.82;;
60641;SDS011;46837;52.446;-1.930;2024-03-22T03:25:07;3.20;;;2.02;;
60641;SDS011;46837;52.446;-1.930;2024-03-22T03:26:07;6.22;;;2.10;;
60641;SDS011;46837;52.446;-1.930;2024-03-22T03:27:07;0.88;;;0.80;;
60641;SDS011;46837;52.446;-1.930;2024-03-22T03:28:07;1.92;;;1.02;;
60641;SDS011;46837;52.446;-1.930;2024-03-22T03:29:07;1.26;;;0.72;;
60641;SDS011;46837;52.446;-1.930;2024-03-22T03:30:07;0.58;;;0.48;;
60641;SDS011;46837;52.446;-1.930;2024-03-22T03:31:07;2.10;;;0.54;;
60641;SDS011;46837;52.446;-1.930;2024-03-22T03:32:07;0.94;;;0.70;;
60641;SDS011;46837;52.446;-1.930;2024-03-22T03:33:07;0.76;;;0.44;;
60641;SDS011;46837;52.446;-1.930;2024-03-22T03:34:07;0.88;;;0.70;;
60641;SDS011;46837;52.446;-1.930;2024-03-22T03:35:07;4.38;;;0.80;;
60641;SDS011;46837;52.446;-1.930;2024-03-22T03:36:07;0.72;;;0.44;;
60641;SDS011;46837;52.446;-1.930;2024-03-22T03:37:07;0.66;;;0.38;;
60641;SDS011;46837;52.446;-1.930;2024-03-22T03:38:07;1.30;;;0.40;;
60641;SDS011;46837;52.446;-1.930;2024-03-22T03:39:07;0.74;;;0.36;;
60641;SDS011;46837;52.446;-1.930;2024-03-22T03:40:07;3.30;;;0.92;;
60641;SDS011;46837;52.446;-1.930;2024-03-22T03:41:07;1.42;;;0.90;;
60641;SDS011;46837;52.446;-1.930;2024-03-22T03:42:07;0.56;;;0.42;;
60641;SDS011;46837;52.446;-1.930;2024-03-22T03:43:07;3.44;;;0.82;;
60641;SDS011;46837;52.446;-1.930;2024-03-22T03:44:07;3.80;;;0.86;;
60641;SDS011;46837;52.446;-1.930;2024-03-22T03:45:07;2.58;;;0.88;;
60641;SDS011;46837;52.446;-1.930;2024-03-22T03:46:07;2.04;;;0.90;;
60641;SDS011;46837;52.446;-1.930;2024-03-22T03:47:07;1.18;;;0.62;;
60641;SDS011;46837;52.446;-1.930;2024-03-22T03:48:07;0.68;;;0.34;;
60641;SDS011;46837;52.446;-1.930;2024-03-22T03:49:07;1.12;;;0.34;;
60641;SDS011;46837;52.446;-1.930;2024-03-22T03:50:07;4.34;;;0.22;;
60641;SDS011;46837;52.446;-1.930;2024-03-22T03:51:07;1.46;;;0.50;;
60641;SDS011;46837;52.446;-1.930;2024-03-22T03:52:07;3.92;;;0.80;;
60641;SDS011;46837;52.446;-1.930;2024-03-22T03:53:07;2.04;;;0.58;;
60641;SDS011;46837;52.446;-1.930;2024-03-22T03:54:07;0.78;;;0.46;;
60641;SDS011;46837;52.446;-1.930;2024-03-22T03:55:07;1.18;;;0.46;;
60641;SDS011;46837;52.446;-1.930;2024-03-22T03:56:07;1.02;;;0.52;;
60641;SDS011;46837;52.446;-1.930;2024-03-22T03:57:07;0.36;;;0.20;;
60641;SDS011;46837;52.446;-1.930;2024-03-22T03:58:07;2.72;;;0.40;;
60641;SDS011;46837;52.446;-1.930;2024-03-22T03:59:07;2.60;;;0.62;;
60641;SDS011;46837;52.446;-1.930;2024-03-22T04:00:07;4.26;;;1.12;;
60641;SDS011;46837;52.446;-1.930;2024-03-22T04:01:07;1.52;;;0.54;;
60641;SDS011;46837;52.446;-1.930;2024-03-22T04:02:07;2.30;;;0.36;;
60641;SDS011;46837;52.446;-1.930;2024-03-22T04:03:07;2.04;;;0.50;;
60641;SDS011;46837;52.446;-1.930;2024-03-22T04:04:07;1.54;;;0.58;;
60641;SDS011;46837;52.446;-1.930;2024-03-22T04:05:07;1.94;;;0.78;;
60641;SDS011;46837;52.446;-1.930;2024-03-22T04:06:07;1.30;;;0.48;;
60641;SDS011;46837;52.446;-1.930;2024-03-22T04:07:07;1.10;;;0.32;;
60641;SDS011;46837;52.446;-1.930;2024-03-22T04:08:07;2.08;;;0.50;;
60641;SDS011;46837;52.446;-1.930;2024-03-22T04:09:07;2.08;;;0.48;;
60641;SDS011;46837;52.446;-1.930;2024-03-22T04:10:07;1.66;;;0.56;;
60641;SDS011;46837;52.446;-1.930;2024-03-22T04:11:07;0.90;;;0.48;;
60641;SDS011;46837;52.446;-1.930;2024-03-22T04:12:07;1.52;;;0.40;;
60641;SDS011;46837;52.446;-1.930;2024-03-22T04:13:07;4.14;;;0.82;;
60641;SDS011;46837;52.446;-1.930;2024-03-22T04:14:07;2.72;;;0.50;;
60641;SDS011;46837;52.446;-1.930;2024-03-22T04:15:07;0.92;;;0.38;;
60641;SDS011;46837;52.446;-1.930;2024-03-22T04:16:07;3.18;;;0.46;;
60641;SDS011;46837;52.446;-1.930;2024-03-22T04:17:07;0.94;;;0.42;;
60641;SDS011;46837;52.446;-1.930;2024-03-22T04:18:07;4.54;;;0.98;;
60641;SDS011;46837;52.446;-1.930;2024-03-22T04:19:07;2.96;;;0.56;;
60641;SDS011;46837;52.446;-1.930;2024-03-22T04:20:07;0.68;;;0.42;;
60641;SDS011;46837;52.446;-1.930;2024-03-22T04:21:07;3.04;;;0.56;;
60641;SDS011;46837;52.446;-1.930;2024-03-22T04:22:07;3.50;;;0.70;;
60641;SDS011;46837;52.446;-1.930;2024-03-22T04:23:07;2.80;;;0.58;;
60641;SDS011;46837;52.446;-1.930;2024-03-22T04:24:07;4.56;;;0.38;;
60641;SDS011;46837;52.446;-1.930;2024-03-22T04:25:07;2.12;;;0.60;;
60641;SDS011;46837;52.446;-1.930;2024-03-22T04:26:07;2.22;;;0.52;;
60641;SDS011;46837;52.446;-1.930;2024-03-22T04:27:07;0.66;;;0.30;;
60641;SDS011;46837;52.446;-1.930;2024-03-22T04:28:07;1.10;;;0.44;;
60641;SDS011;46837;52.446;-1.930;2024-03-22T04:29:07;4.92;;;1.24;;
60641;SDS011;46837;52.446;-1.930;2024-03-22T04:30:07;4.10;;;0.42;;
60641;SDS011;46837;52.446;-1.930;2024-03-22T04:31:07;1.24;;;0.52;;
60641;SDS011;46837;52.446;-1.930;2024-03-22T04:32:07;6.66;;;0.40;;
60641;SDS011;46837;52.446;-1.930;2024-03-22T04:33:07;1.42;;;0.96;;
60641;SDS011;46837;52.446;-1.930;2024-03-22T04:34:08;2.42;;;0.42;;
60641;SDS011;46837;52.446;-1.930;2024-03-22T04:35:07;0.94;;;0.40;;
60641;SDS011;46837;52.446;-1.930;2024-03-22T04:36:07;0.40;;;0.32;;
60641;SDS011;46837;52.446;-1.930;2024-03-22T04:37:07;0.94;;;0.46;;
60641;SDS011;46837;52.446;-1.930;2024-03-22T04:38:07;1.84;;;0.80;;
60641;SDS011;46837;52.446;-1.930;2024-03-22T04:39:07;3.44;;;0.82;;
60641;SDS011;46837;52.446;-1.930;2024-03-22T04:40:07;1.00;;;0.48;;
60641;SDS011;46837;52.446;-1.930;2024-03-22T04:41:07;0.70;;;0.38;;
60641;SDS011;46837;52.446;-1.930;2024-03-22T04:42:07;0.74;;;0.74;;
60641;SDS011;46837;52.446;-1.930;2024-03-22T04:43:07;1.66;;;0.60;;
60641;SDS011;46837;52.446;-1.930;2024-03-22T04:44:07;1.36;;;0.40;;
60641;SDS011;46837;52.446;-1.930;2024-03-22T04:45:07;2.54;;;0.62;;
60641;SDS011;46837;52.446;-1.930;2024-03-22T04:46:07;1.84;;;0.62;;
60641;SDS011;46837;52.446;-1.930;2024-03-22T04:47:07;1.90;;;0.40;;
60641;SDS011;46837;52.446;-1.930;2024-03-22T04:48:07;4.14;;;0.64;;
60641;SDS011;46837;52.446;-1.930;2024-03-22T04:49:07;6.90;;;1.16;;
60641;SDS011;46837;52.446;-1.930;2024-03-22T04:50:07;2.50;;;0.48;;
60641;SDS011;46837;52.446;-1.930;2024-03-22T04:51:07;4.08;;;1.80;;
60641;SDS011;46837;52.446;-1.930;2024-03-22T04:52:07;2.58;;;0.50;;
60641;SDS011;46837;52.446;-1.930;2024-03-22T04:53:07;3.96;;;0.78;;
60641;SDS011;46837;52.446;-1.930;2024-03-22T04:54:07;1.28;;;0.66;;
60641;SDS011;46837;52.446;-1.930;2024-03-22T04:55:07;2.62;;;0.64;;
60641;SDS011;46837;52.446;-1.930;2024-03-22T04:56:07;2.26;;;0.58;;
60641;SDS011;46837;52.446;-1.930;2024-03-22T04:57:07;0.68;;;0.32;;
60641;SDS011;46837;52.446;-1.930;2024-03-22T04:58:07;3.04;;;0.52;;
60641;SDS011;46837;52.446;-1.930;2024-03-22T04:59:07;2.00;;;0.76;;
60641;SDS011;46837;52.446;-1.930;2024-03-22T05:00:08;1.88;;;0.34;;
60641;SDS011;46837;52.446;-1.930;2024-03-22T05:01:07;2.22;;;0.44;;
60641;SDS011;46837;52.446;-1.930;2024-03-22T05:02:07;3.82;;;0.42;;
60641;SDS011;46837;52.446;-1.930;2024-03-22T05:03:07;3.30;;;0.38;;
60641;SDS011;46837;52.446;-1.930;2024-03-22T05:04:07;3.66;;;1.10;;
60641;SDS011;46837;52.446;-1.930;2024-03-22T05:05:07;3.96;;;0.54;;
60641;SDS011;46837;52.446;-1.930;2024-03-22T05:06:07;0.70;;;0.34;;
60641;SDS011;46837;52.446;-1.930;2024-03-22T05:07:07;2.64;;;0.64;;
60641;SDS011;46837;52.446;-1.930;2024-03-22T05:08:07;0.44;;;0.34;;
60641;SDS011;46837;52.446;-1.930;2024-03-22T05:09:07;1.58;;;0.50;;
60641;SDS011;46837;52.446;-1.930;2024-03-22T05:10:07;2.40;;;0.20;;
60641;SDS011;46837;52.446;-1.930;2024-03-22T05:11:07;9.80;;;0.60;;
60641;SDS011;46837;52.446;-1.930;2024-03-22T05:12:07;1.44;;;0.44;;
60641;SDS011;46837;52.446;-1.930;2024-03-22T05:13:07;2.14;;;0.86;;
60641;SDS011;46837;52.446;-1.930;2024-03-22T05:14:07;1.82;;;0.58;;
60641;SDS011;46837;52.446;-1.930;2024-03-22T05:15:07;6.54;;;0.56;;
60641;SDS011;46837;52.446;-1.930;2024-03-22T05:16:07;4.16;;;1.24;;
60641;SDS011;46837;52.446;-1.930;2024-03-22T05:17:07;2.64;;;0.82;;
60641;SDS011;46837;52.446;-1.930;2024-03-22T05:18:07;4.56;;;1.04;;
60641;SDS011;46837;52.446;-1.930;2024-03-22T05:19:07;2.96;;;0.58;;
60641;SDS011;46837;52.446;-1.930;2024-03-22T05:20:07;4.02;;;0.98;;
60641;SDS011;46837;52.446;-1.930;2024-03-22T05:21:07;3.82;;;0.72;;
60641;SDS011;46837;52.446;-1.930;2024-03-22T05:22:07;2.80;;;0.82;;
60641;SDS011;46837;52.446;-1.930;2024-03-22T05:23:07;1.26;;;0.42;;
60641;SDS011;46837;52.446;-1.930;2024-03-22T05:24:07;1.94;;;0.48;;
60641;SDS011;46837;52.446;-1.930;2024-03-22T05:25:07;0.86;;;0.40;;
60641;SDS011;46837;52.446;-1.930;2024-03-22T05:26:07;1.90;;;0.52;;
60641;SDS011;46837;52.446;-1.930;2024-03-22T05:27:07;4.14;;;0.50;;
60641;SDS011;46837;52.446;-1.930;2024-03-22T05:28:07;3.02;;;0.38;;
60641;SDS011;46837;52.446;-1.930;2024-03-22T05:29:07;5.00;;;0.66;;
60641;SDS011;46837;52.446;-1.930;2024-03-22T05:30:07;2.18;;;0.60;;
60641;SDS011;46837;52.446;-1.930;2024-03-22T05:31:07;2.24;;;0.56;;
60641;SDS011;46837;52.446;-1.930;2024-03-22T05:32:07;3.48;;;1.16;;
60641;SDS011;46837;52.446;-1.930;2024-03-22T05:33:07;1.48;;;0.68;;
60641;SDS011;46837;52.446;-1.930;2024-03-22T05:34:07;3.66;;;0.88;;
60641;SDS011;46837;52.446;-1.930;2024-03-22T05:35:07;1.50;;;0.62;;
60641;SDS011;46837;52.446;-1.930;2024-03-22T05:36:07;4.54;;;0.98;;
60641;SDS011;46837;52.446;-1.930;2024-03-22T05:37:07;4.28;;;0.98;;
60641;SDS011;46837;52.446;-1.930;2024-03-22T05:38:07;1.62;;;0.70;;
60641;SDS011;46837;52.446;-1.930;2024-03-22T05:39:07;0.56;;;0.48;;
60641;SDS011;46837;52.446;-1.930;2024-03-22T05:40:07;3.04;;;0.94;;
60641;SDS011;46837;52.446;-1.930;2024-03-22T05:41:07;0.74;;;0.32;;
60641;SDS011;46837;52.446;-1.930;2024-03-22T05:42:07;1.22;;;0.38;;
60641;SDS011;46837;52.446;-1.930;2024-03-22T05:43:07;1.50;;;0.60;;
60641;SDS011;46837;52.446;-1.930;2024-03-22T05:44:07;3.88;;;1.14;;
60641;SDS011;46837;52.446;-1.930;2024-03-22T05:45:07;2.74;;;0.62;;
60641;SDS011;46837;52.446;-1.930;2024-03-22T05:46:07;5.14;;;0.62;;
60641;SDS011;46837;52.446;-1.930;2024-03-22T05:47:07;1.68;;;0.40;;
60641;SDS011;46837;52.446;-1.930;2024-03-22T05:48:07;3.12;;;0.86;;
60641;SDS011;46837;52.446;-1.930;2024-03-22T05:49:07;1.82;;;0.70;;
60641;SDS011;46837;52.446;-1.930;2024-03-22T05:50:09;2.56;;;0.64;;
60641;SDS011;46837;52.446;-1.930;2024-03-22T05:51:07;5.84;;;1.88;;
60641;SDS011;46837;52.446;-1.930;2024-03-22T05:52:07;4.68;;;0.76;;
60641;SDS011;46837;52.446;-1.930;2024-03-22T05:53:07;1.54;;;0.64;;
60641;SDS011;46837;52.446;-1.930;2024-03-22T05:54:07;1.52;;;0.52;;
60641;SDS011;46837;52.446;-1.930;2024-03-22T05:55:07;1.06;;;0.62;;